sensor_id;sensor_type;location;lat;lon;timestamp;P1;durP1;ratioP1;P2;durP2;ratioP2
71629;SDS011;59479;51.902;8.212;2023-09-07T00:00:36;4.60;;;2.10;;
71629;SDS011;59479;51.902;8.212;2023-09-07T00:03:01;3.90;;;2.00;;
71629;SDS011;59479;51.902;8.212;2023-09-07T00:05:27;5.20;;;2.00;;
71629;SDS011;59479;51.902;8.212;2023-09-07T00:07:52;4.27;;;2.03;;
71629;SDS011;59479;51.902;8.212;2023-09-07T00:10:18;4.75;;;2.30;;
71629;SDS011;59479;51.902;8.212;2023-09-07T00:12:43;3.80;;;2.10;;
71629;SDS011;59479;51.902;8.212;2023-09-07T00:15:09;4.03;;;1.90;;
71629;SDS011;59479;51.902;8.212;2023-09-07T00:17:35;4.40;;;2.15;;
71629;SDS011;59479;51.902;8.212;2023-09-07T00:20:01;5.25;;;2.40;;
71629;SDS011;59479;51.902;8.212;2023-09-07T00:22:35;3.88;;;2.00;;
71629;SDS011;59479;51.902;8.212;2023-09-07T00:25:01;4.10;;;1.97;;
71629;SDS011;59479;51.902;8.212;2023-09-07T00:27:26;4.50;;;2.20;;
71629;SDS011;59479;51.902;8.212;2023-09-07T00:29:51;5.33;;;2.10;;
71629;SDS011;59479;51.902;8.212;2023-09-07T00:32:17;4.35;;;1.98;;
71629;SDS011;59479;51.902;8.212;2023-09-07T00:34:42;4.40;;;2.10;;
71629;SDS011;59479;51.902;8.212;2023-09-07T00:37:07;3.87;;;2.20;;
71629;SDS011;59479;51.902;8.212;2023-09-07T00:39:33;6.03;;;2.70;;
71629;SDS011;59479;51.902;8.212;2023-09-07T00:41:58;4.03;;;2.10;;
71629;SDS011;59479;51.902;8.212;2023-09-07T00:44:23;4.57;;;2.23;;
71629;SDS011;59479;51.902;8.212;2023-09-07T00:46:49;4.00;;;2.50;;
71629;SDS011;59479;51.902;8.212;2023-09-07T00:49:14;4.30;;;2.20;;
71629;SDS011;59479;51.902;8.212;2023-09-07T00:51:39;4.47;;;2.10;;
71629;SDS011;59479;51.902;8.212;2023-09-07T00:54:05;3.90;;;2.15;;
71629;SDS011;59479;51.902;8.212;2023-09-07T00:56:31;4.33;;;2.43;;
71629;SDS011;59479;51.902;8.212;2023-09-07T00:58:56;4.00;;;2.30;;
71629;SDS011;59479;51.902;8.212;2023-09-07T01:01:25;6.85;;;1.90;;
71629;SDS011;59479;51.902;8.212;2023-09-07T01:03:51;4.63;;;2.40;;
71629;SDS011;59479;51.902;8.212;2023-09-07T01:06:18;4.53;;;2.30;;
71629;SDS011;59479;51.902;8.212;2023-09-07T01:08:51;5.00;;;2.70;;
71629;SDS011;59479;51.902;8.212;2023-09-07T01:11:21;4.40;;;2.27;;
71629;SDS011;59479;51.902;8.212;2023-09-07T01:13:48;5.72;;;2.20;;
71629;SDS011;59479;51.902;8.212;2023-09-07T01:16:14;4.53;;;2.60;;
71629;SDS011;59479;51.902;8.212;2023-09-07T01:18:39;4.70;;;2.30;;
71629;SDS011;59479;51.902;8.212;2023-09-07T01:21:06;4.97;;;2.83;;
71629;SDS011;59479;51.902;8.212;2023-09-07T01:23:34;4.80;;;2.78;;
71629;SDS011;59479;51.902;8.212;2023-09-07T01:26:01;4.65;;;2.33;;
71629;SDS011;59479;51.902;8.212;2023-09-07T01:28:27;4.05;;;2.28;;
71629;SDS011;59479;51.902;8.212;2023-09-07T01:30:52;4.00;;;2.13;;
71629;SDS011;59479;51.902;8.212;2023-09-07T01:33:18;7.90;;;2.87;;
71629;SDS011;59479;51.902;8.212;2023-09-07T01:35:43;5.30;;;2.70;;
71629;SDS011;59479;51.902;8.212;2023-09-07T01:38:09;4.45;;;2.38;;
71629;SDS011;59479;51.902;8.212;2023-09-07T01:40:34;4.43;;;2.30;;
71629;SDS011;59479;51.902;8.212;2023-09-07T01:43:00;4.70;;;2.78;;
71629;SDS011;59479;51.902;8.212;2023-09-07T01:45:25;4.33;;;2.10;;
71629;SDS011;59479;51.902;8.212;2023-09-07T01:47:51;4.30;;;2.27;;
71629;SDS011;59479;51.902;8.212;2023-09-07T01:50:17;4.83;;;2.30;;
71629;SDS011;59479;51.902;8.212;2023-09-07T01:52:42;3.95;;;2.10;;
71629;SDS011;59479;51.902;8.212;2023-09-07T01:55:10;4.72;;;2.17;;
71629;SDS011;59479;51.902;8.212;2023-09-07T01:57:35;5.10;;;2.30;;
71629;SDS011;59479;51.902;8.212;2023-09-07T02:00:01;3.87;;;2.23;;
71629;SDS011;59479;51.902;8.212;2023-09-07T02:02:26;6.00;;;2.13;;
71629;SDS011;59479;51.902;8.212;2023-09-07T02:04:51;4.37;;;2.30;;
71629;SDS011;59479;51.902;8.212;2023-09-07T02:07:17;4.53;;;2.77;;
71629;SDS011;59479;51.902;8.212;2023-09-07T02:09:42;4.80;;;2.30;;
71629;SDS011;59479;51.902;8.212;2023-09-07T02:12:11;7.10;;;2.43;;
71629;SDS011;59479;51.902;8.212;2023-09-07T02:14:36;4.63;;;2.60;;
71629;SDS011;59479;51.902;8.212;2023-09-07T02:17:01;4.50;;;2.90;;
71629;SDS011;59479;51.902;8.212;2023-09-07T02:19:27;6.70;;;2.50;;
71629;SDS011;59479;51.902;8.212;2023-09-07T02:21:52;3.83;;;2.40;;
71629;SDS011;59479;51.902;8.212;2023-09-07T02:24:19;5.25;;;2.40;;
71629;SDS011;59479;51.902;8.212;2023-09-07T02:26:44;5.30;;;3.10;;
71629;SDS011;59479;51.902;8.212;2023-09-07T02:29:13;5.28;;;2.40;;
71629;SDS011;59479;51.902;8.212;2023-09-07T02:31:39;5.30;;;2.58;;
71629;SDS011;59479;51.902;8.212;2023-09-07T02:34:05;5.63;;;3.00;;
71629;SDS011;59479;51.902;8.212;2023-09-07T02:36:30;5.57;;;2.53;;
71629;SDS011;59479;51.902;8.212;2023-09-07T02:38:55;6.25;;;2.92;;
71629;SDS011;59479;51.902;8.212;2023-09-07T02:41:21;5.18;;;2.63;;
71629;SDS011;59479;51.902;8.212;2023-09-07T02:43:46;4.53;;;2.60;;
71629;SDS011;59479;51.902;8.212;2023-09-07T02:46:11;6.00;;;2.70;;
71629;SDS011;59479;51.902;8.212;2023-09-07T02:48:37;4.27;;;2.30;;
71629;SDS011;59479;51.902;8.212;2023-09-07T02:51:02;4.80;;;2.70;;
71629;SDS011;59479;51.902;8.212;2023-09-07T02:53:27;4.47;;;2.47;;
71629;SDS011;59479;51.902;8.212;2023-09-07T02:55:53;6.15;;;2.70;;
71629;SDS011;59479;51.902;8.212;2023-09-07T02:58:18;5.03;;;2.70;;
71629;SDS011;59479;51.902;8.212;2023-09-07T03:00:44;6.07;;;2.87;;
71629;SDS011;59479;51.902;8.212;2023-09-07T03:03:10;4.65;;;2.75;;
71629;SDS011;59479;51.902;8.212;2023-09-07T03:05:38;5.57;;;2.75;;
71629;SDS011;59479;51.902;8.212;2023-09-07T03:08:06;5.50;;;2.97;;
71629;SDS011;59479;51.902;8.212;2023-09-07T03:10:32;6.35;;;2.60;;
71629;SDS011;59479;51.902;8.212;2023-09-07T03:12:57;5.37;;;2.70;;
71629;SDS011;59479;51.902;8.212;2023-09-07T03:15:23;5.30;;;2.80;;
71629;SDS011;59479;51.902;8.212;2023-09-07T03:17:48;4.43;;;2.30;;
71629;SDS011;59479;51.902;8.212;2023-09-07T03:20:13;5.73;;;2.63;;
71629;SDS011;59479;51.902;8.212;2023-09-07T03:22:43;5.27;;;2.60;;
71629;SDS011;59479;51.902;8.212;2023-09-07T03:25:09;5.80;;;2.60;;
71629;SDS011;59479;51.902;8.212;2023-09-07T03:27:35;4.93;;;2.67;;
71629;SDS011;59479;51.902;8.212;2023-09-07T03:30:01;4.32;;;2.17;;
71629;SDS011;59479;51.902;8.212;2023-09-07T03:32:28;4.10;;;2.40;;
71629;SDS011;59479;51.902;8.212;2023-09-07T03:34:57;4.75;;;2.65;;
71629;SDS011;59479;51.902;8.212;2023-09-07T03:37:28;4.75;;;2.50;;
71629;SDS011;59479;51.902;8.212;2023-09-07T03:39:53;4.93;;;2.80;;
71629;SDS011;59479;51.902;8.212;2023-09-07T03:42:19;4.30;;;2.40;;
71629;SDS011;59479;51.902;8.212;2023-09-07T03:44:45;4.57;;;2.40;;
71629;SDS011;59479;51.902;8.212;2023-09-07T03:47:10;5.97;;;3.00;;
71629;SDS011;59479;51.902;8.212;2023-09-07T03:49:37;4.97;;;2.58;;
71629;SDS011;59479;51.902;8.212;2023-09-07T03:52:03;5.80;;;2.60;;
71629;SDS011;59479;51.902;8.212;2023-09-07T03:54:30;5.30;;;2.80;;
71629;SDS011;59479;51.902;8.212;2023-09-07T03:56:56;4.13;;;2.22;;
71629;SDS011;59479;51.902;8.212;2023-09-07T03:59:21;4.33;;;2.80;;
71629;SDS011;59479;51.902;8.212;2023-09-07T04:01:46;6.27;;;2.70;;
71629;SDS011;59479;51.902;8.212;2023-09-07T04:04:12;6.17;;;2.33;;
71629;SDS011;59479;51.902;8.212;2023-09-07T04:06:37;7.77;;;2.63;;
71629;SDS011;59479;51.902;8.212;2023-09-07T04:09:02;5.68;;;2.72;;
71629;SDS011;59479;51.902;8.212;2023-09-07T04:11:28;5.13;;;2.50;;
71629;SDS011;59479;51.902;8.212;2023-09-07T04:13:53;5.50;;;2.80;;
71629;SDS011;59479;51.902;8.212;2023-09-07T04:16:18;6.07;;;2.90;;
71629;SDS011;59479;51.902;8.212;2023-09-07T04:18:44;5.53;;;2.33;;
71629;SDS011;59479;51.902;8.212;2023-09-07T04:21:09;4.53;;;2.60;;
71629;SDS011;59479;51.902;8.212;2023-09-07T04:23:35;5.65;;;2.80;;
71629;SDS011;59479;51.902;8.212;2023-09-07T04:26:10;5.40;;;2.70;;
71629;SDS011;59479;51.902;8.212;2023-09-07T04:28:37;6.00;;;2.95;;
71629;SDS011;59479;51.902;8.212;2023-09-07T04:31:03;5.13;;;3.20;;
71629;SDS011;59479;51.902;8.212;2023-09-07T04:33:30;5.47;;;3.10;;
71629;SDS011;59479;51.902;8.212;2023-09-07T04:35:56;6.50;;;2.58;;
71629;SDS011;59479;51.902;8.212;2023-09-07T04:38:21;6.05;;;3.08;;
71629;SDS011;59479;51.902;8.212;2023-09-07T04:40:47;9.27;;;3.17;;
71629;SDS011;59479;51.902;8.212;2023-09-07T04:43:12;7.73;;;3.17;;
71629;SDS011;59479;51.902;8.212;2023-09-07T04:45:45;6.22;;;3.10;;
71629;SDS011;59479;51.902;8.212;2023-09-07T04:48:11;6.20;;;2.90;;
71629;SDS011;59479;51.902;8.212;2023-09-07T04:50:37;4.97;;;2.90;;
71629;SDS011;59479;51.902;8.212;2023-09-07T04:53:03;5.88;;;3.00;;
71629;SDS011;59479;51.902;8.212;2023-09-07T04:55:28;5.63;;;3.50;;
71629;SDS011;59479;51.902;8.212;2023-09-07T04:57:53;6.67;;;3.43;;
71629;SDS011;59479;51.902;8.212;2023-09-07T05:00:19;6.60;;;2.85;;
71629;SDS011;59479;51.902;8.212;2023-09-07T05:02:44;6.00;;;3.00;;
71629;SDS011;59479;51.902;8.212;2023-09-07T05:05:11;5.03;;;2.90;;
71629;SDS011;59479;51.902;8.212;2023-09-07T05:07:36;4.87;;;3.00;;
71629;SDS011;59479;51.902;8.212;2023-09-07T05:10:01;5.80;;;3.30;;
71629;SDS011;59479;51.902;8.212;2023-09-07T05:12:28;5.55;;;3.08;;
71629;SDS011;59479;51.902;8.212;2023-09-07T05:14:53;6.97;;;2.83;;
71629;SDS011;59479;51.902;8.212;2023-09-07T05:17:18;5.03;;;2.80;;
71629;SDS011;59479;51.902;8.212;2023-09-07T05:19:43;6.33;;;2.97;;
71629;SDS011;59479;51.902;8.212;2023-09-07T05:22:09;5.10;;;3.27;;
71629;SDS011;59479;51.902;8.212;2023-09-07T05:24:37;5.35;;;2.60;;
71629;SDS011;59479;51.902;8.212;2023-09-07T05:27:03;6.45;;;2.63;;
71629;SDS011;59479;51.902;8.212;2023-09-07T05:29:28;6.07;;;2.83;;
71629;SDS011;59479;51.902;8.212;2023-09-07T05:31:53;6.00;;;2.93;;
71629;SDS011;59479;51.902;8.212;2023-09-07T05:34:19;4.97;;;2.80;;
71629;SDS011;59479;51.902;8.212;2023-09-07T05:36:44;5.77;;;2.97;;
71629;SDS011;59479;51.902;8.212;2023-09-07T05:39:09;5.73;;;3.17;;
71629;SDS011;59479;51.902;8.212;2023-09-07T05:41:35;9.20;;;3.47;;
71629;SDS011;59479;51.902;8.212;2023-09-07T05:44:00;6.60;;;3.30;;
71629;SDS011;59479;51.902;8.212;2023-09-07T05:46:25;7.20;;;2.87;;
71629;SDS011;59479;51.902;8.212;2023-09-07T05:48:51;6.07;;;3.10;;
71629;SDS011;59479;51.902;8.212;2023-09-07T05:51:16;7.43;;;3.30;;
71629;SDS011;59479;51.902;8.212;2023-09-07T05:53:41;8.63;;;3.00;;
71629;SDS011;59479;51.902;8.212;2023-09-07T05:56:07;5.63;;;3.10;;
71629;SDS011;59479;51.902;8.212;2023-09-07T05:58:32;6.53;;;3.05;;
71629;SDS011;59479;51.902;8.212;2023-09-07T06:00:58;7.40;;;3.10;;
71629;SDS011;59479;51.902;8.212;2023-09-07T06:03:24;7.82;;;2.97;;
71629;SDS011;59479;51.902;8.212;2023-09-07T06:05:50;5.37;;;2.97;;
71629;SDS011;59479;51.902;8.212;2023-09-07T06:08:15;5.93;;;3.30;;
71629;SDS011;59479;51.902;8.212;2023-09-07T06:10:40;6.60;;;3.05;;
71629;SDS011;59479;51.902;8.212;2023-09-07T06:13:06;6.20;;;3.00;;
71629;SDS011;59479;51.902;8.212;2023-09-07T06:15:31;6.27;;;3.20;;
71629;SDS011;59479;51.902;8.212;2023-09-07T06:17:57;5.83;;;3.10;;
71629;SDS011;59479;51.902;8.212;2023-09-07T06:20:22;5.10;;;3.17;;
71629;SDS011;59479;51.902;8.212;2023-09-07T06:22:48;6.20;;;3.07;;
71629;SDS011;59479;51.902;8.212;2023-09-07T06:25:14;6.22;;;3.55;;
71629;SDS011;59479;51.902;8.212;2023-09-07T06:27:39;7.23;;;2.90;;
71629;SDS011;59479;51.902;8.212;2023-09-07T06:30:05;5.03;;;3.10;;
71629;SDS011;59479;51.902;8.212;2023-09-07T06:32:31;6.20;;;2.97;;
71629;SDS011;59479;51.902;8.212;2023-09-07T06:34:57;5.95;;;3.30;;
71629;SDS011;59479;51.902;8.212;2023-09-07T06:37:23;5.13;;;2.93;;
71629;SDS011;59479;51.902;8.212;2023-09-07T06:39:49;5.50;;;2.65;;
71629;SDS011;59479;51.902;8.212;2023-09-07T06:42:15;5.78;;;3.28;;
71629;SDS011;59479;51.902;8.212;2023-09-07T06:44:40;6.47;;;3.37;;
71629;SDS011;59479;51.902;8.212;2023-09-07T06:47:06;8.73;;;2.80;;
71629;SDS011;59479;51.902;8.212;2023-09-07T06:49:31;6.87;;;3.00;;
71629;SDS011;59479;51.902;8.212;2023-09-07T06:51:57;5.43;;;2.95;;
71629;SDS011;59479;51.902;8.212;2023-09-07T06:54:22;6.37;;;2.97;;
71629;SDS011;59479;51.902;8.212;2023-09-07T06:56:47;5.20;;;2.83;;
71629;SDS011;59479;51.902;8.212;2023-09-07T06:59:13;5.67;;;2.73;;
71629;SDS011;59479;51.902;8.212;2023-09-07T07:01:39;5.30;;;3.15;;
71629;SDS011;59479;51.902;8.212;2023-09-07T07:04:04;5.27;;;2.97;;
71629;SDS011;59479;51.902;8.212;2023-09-07T07:06:29;5.00;;;2.93;;
71629;SDS011;59479;51.902;8.212;2023-09-07T07:08:55;6.67;;;2.87;;
71629;SDS011;59479;51.902;8.212;2023-09-07T07:11:20;4.57;;;2.30;;
71629;SDS011;59479;51.902;8.212;2023-09-07T07:13:45;4.83;;;2.60;;
71629;SDS011;59479;51.902;8.212;2023-09-07T07:16:11;5.10;;;2.50;;
71629;SDS011;59479;51.902;8.212;2023-09-07T07:18:36;5.13;;;2.35;;
71629;SDS011;59479;51.902;8.212;2023-09-07T07:21:01;6.83;;;2.87;;
71629;SDS011;59479;51.902;8.212;2023-09-07T07:23:27;4.80;;;2.87;;
71629;SDS011;59479;51.902;8.212;2023-09-07T07:25:52;5.50;;;3.00;;
71629;SDS011;59479;51.902;8.212;2023-09-07T07:28:18;5.03;;;2.78;;
71629;SDS011;59479;51.902;8.212;2023-09-07T07:30:43;7.67;;;3.03;;
71629;SDS011;59479;51.902;8.212;2023-09-07T07:33:08;6.33;;;3.17;;
71629;SDS011;59479;51.902;8.212;2023-09-07T07:35:36;5.65;;;2.60;;
71629;SDS011;59479;51.902;8.212;2023-09-07T07:38:05;7.50;;;3.23;;
71629;SDS011;59479;51.902;8.212;2023-09-07T07:40:32;7.97;;;3.05;;
71629;SDS011;59479;51.902;8.212;2023-09-07T07:42:58;5.80;;;3.17;;
71629;SDS011;59479;51.902;8.212;2023-09-07T07:45:23;5.50;;;2.80;;
71629;SDS011;59479;51.902;8.212;2023-09-07T07:47:49;5.10;;;2.65;;
71629;SDS011;59479;51.902;8.212;2023-09-07T07:50:15;5.17;;;2.77;;
71629;SDS011;59479;51.902;8.212;2023-09-07T07:52:41;5.03;;;2.70;;
71629;SDS011;59479;51.902;8.212;2023-09-07T07:55:07;5.70;;;3.17;;
71629;SDS011;59479;51.902;8.212;2023-09-07T07:57:32;5.73;;;3.00;;
71629;SDS011;59479;51.902;8.212;2023-09-07T07:59:58;6.67;;;3.23;;
71629;SDS011;59479;51.902;8.212;2023-09-07T08:02:23;6.90;;;2.70;;
71629;SDS011;59479;51.902;8.212;2023-09-07T08:04:48;4.37;;;2.40;;
71629;SDS011;59479;51.902;8.212;2023-09-07T08:07:14;5.83;;;2.87;;
71629;SDS011;59479;51.902;8.212;2023-09-07T08:09:39;6.57;;;3.00;;
71629;SDS011;59479;51.902;8.212;2023-09-07T08:12:05;5.90;;;2.90;;
71629;SDS011;59479;51.902;8.212;2023-09-07T08:14:31;6.20;;;3.00;;
71629;SDS011;59479;51.902;8.212;2023-09-07T08:16:57;7.20;;;2.67;;
71629;SDS011;59479;51.902;8.212;2023-09-07T08:19:23;5.67;;;2.90;;
71629;SDS011;59479;51.902;8.212;2023-09-07T08:21:49;6.15;;;2.80;;
71629;SDS011;59479;51.902;8.212;2023-09-07T08:24:15;5.25;;;2.70;;
71629;SDS011;59479;51.902;8.212;2023-09-07T08:26:40;4.90;;;2.73;;
71629;SDS011;59479;51.902;8.212;2023-09-07T08:29:07;5.68;;;2.90;;
71629;SDS011;59479;51.902;8.212;2023-09-07T08:31:34;7.70;;;2.87;;
71629;SDS011;59479;51.902;8.212;2023-09-07T08:34:04;5.65;;;3.00;;
71629;SDS011;59479;51.902;8.212;2023-09-07T08:36:30;5.03;;;2.47;;
71629;SDS011;59479;51.902;8.212;2023-09-07T08:39:00;5.25;;;3.10;;
71629;SDS011;59479;51.902;8.212;2023-09-07T08:41:26;4.85;;;2.58;;
71629;SDS011;59479;51.902;8.212;2023-09-07T08:43:53;4.67;;;2.70;;
71629;SDS011;59479;51.902;8.212;2023-09-07T08:46:20;4.88;;;2.58;;
71629;SDS011;59479;51.902;8.212;2023-09-07T08:48:47;5.93;;;2.78;;
71629;SDS011;59479;51.902;8.212;2023-09-07T08:51:17;4.10;;;2.53;;
71629;SDS011;59479;51.902;8.212;2023-09-07T08:53:43;6.93;;;3.08;;
71629;SDS011;59479;51.902;8.212;2023-09-07T08:56:11;5.60;;;2.83;;
71629;SDS011;59479;51.902;8.212;2023-09-07T08:58:37;5.72;;;2.65;;
71629;SDS011;59479;51.902;8.212;2023-09-07T09:01:04;6.80;;;3.20;;
71629;SDS011;59479;51.902;8.212;2023-09-07T09:03:30;4.90;;;2.70;;
71629;SDS011;59479;51.902;8.212;2023-09-07T09:05:56;6.40;;;3.27;;
71629;SDS011;59479;51.902;8.212;2023-09-07T09:08:21;5.17;;;2.80;;
71629;SDS011;59479;51.902;8.212;2023-09-07T09:10:49;4.90;;;2.50;;
71629;SDS011;59479;51.902;8.212;2023-09-07T09:13:35;4.97;;;2.92;;
71629;SDS011;59479;51.902;8.212;2023-09-07T09:16:01;4.70;;;2.70;;
71629;SDS011;59479;51.902;8.212;2023-09-07T09:18:27;5.57;;;2.50;;
71629;SDS011;59479;51.902;8.212;2023-09-07T09:20:56;4.78;;;2.63;;
71629;SDS011;59479;51.902;8.212;2023-09-07T09:23:24;5.03;;;2.67;;
71629;SDS011;59479;51.902;8.212;2023-09-07T09:25:49;5.63;;;2.43;;
71629;SDS011;59479;51.902;8.212;2023-09-07T09:28:14;4.53;;;2.43;;
71629;SDS011;59479;51.902;8.212;2023-09-07T09:30:40;4.87;;;2.50;;
71629;SDS011;59479;51.902;8.212;2023-09-07T09:33:08;5.85;;;2.65;;
71629;SDS011;59479;51.902;8.212;2023-09-07T09:35:34;4.80;;;2.80;;
71629;SDS011;59479;51.902;8.212;2023-09-07T09:38:00;5.90;;;2.60;;
71629;SDS011;59479;51.902;8.212;2023-09-07T09:40:32;4.93;;;2.42;;
71629;SDS011;59479;51.902;8.212;2023-09-07T09:42:59;4.40;;;2.42;;
71629;SDS011;59479;51.902;8.212;2023-09-07T09:45:26;7.60;;;2.65;;
71629;SDS011;59479;51.902;8.212;2023-09-07T09:47:53;5.80;;;2.50;;
71629;SDS011;59479;51.902;8.212;2023-09-07T09:50:21;4.20;;;2.45;;
71629;SDS011;59479;51.902;8.212;2023-09-07T09:52:47;4.57;;;2.33;;
71629;SDS011;59479;51.902;8.212;2023-09-07T09:55:13;4.68;;;2.63;;
71629;SDS011;59479;51.902;8.212;2023-09-07T09:57:40;4.65;;;2.45;;
71629;SDS011;59479;51.902;8.212;2023-09-07T10:00:06;4.00;;;2.20;;
71629;SDS011;59479;51.902;8.212;2023-09-07T10:05:37;4.88;;;2.50;;
71629;SDS011;59479;51.902;8.212;2023-09-07T10:08:07;6.13;;;2.20;;
71629;SDS011;59479;51.902;8.212;2023-09-07T10:10:43;4.55;;;2.08;;
71629;SDS011;59479;51.902;8.212;2023-09-07T10:13:12;4.70;;;2.90;;
71629;SDS011;59479;51.902;8.212;2023-09-07T10:15:39;5.78;;;2.70;;
71629;SDS011;59479;51.902;8.212;2023-09-07T10:18:11;5.15;;;2.30;;
71629;SDS011;59479;51.902;8.212;2023-09-07T10:20:56;4.03;;;2.00;;
71629;SDS011;59479;51.902;8.212;2023-09-07T10:23:23;4.05;;;2.35;;
71629;SDS011;59479;51.902;8.212;2023-09-07T10:26:00;4.07;;;2.00;;
71629;SDS011;59479;51.902;8.212;2023-09-07T10:28:29;4.25;;;2.40;;
71629;SDS011;59479;51.902;8.212;2023-09-07T10:31:05;4.43;;;2.47;;
71629;SDS011;59479;51.902;8.212;2023-09-07T10:33:34;4.97;;;2.90;;
71629;SDS011;59479;51.902;8.212;2023-09-07T10:36:03;4.65;;;2.58;;
71629;SDS011;59479;51.902;8.212;2023-09-07T10:38:30;4.63;;;2.15;;
71629;SDS011;59479;51.902;8.212;2023-09-07T10:40:57;4.60;;;2.53;;
71629;SDS011;59479;51.902;8.212;2023-09-07T10:43:24;5.13;;;2.20;;
71629;SDS011;59479;51.902;8.212;2023-09-07T10:45:53;4.15;;;2.25;;
71629;SDS011;59479;51.902;8.212;2023-09-07T10:48:19;4.28;;;2.13;;
71629;SDS011;59479;51.902;8.212;2023-09-07T10:50:45;3.97;;;2.23;;
71629;SDS011;59479;51.902;8.212;2023-09-07T10:53:15;4.88;;;2.30;;
71629;SDS011;59479;51.902;8.212;2023-09-07T10:55:49;5.40;;;2.70;;
71629;SDS011;59479;51.902;8.212;2023-09-07T10:58:23;4.80;;;2.23;;
71629;SDS011;59479;51.902;8.212;2023-09-07T11:00:52;5.65;;;2.60;;
71629;SDS011;59479;51.902;8.212;2023-09-07T11:03:17;3.67;;;2.17;;
71629;SDS011;59479;51.902;8.212;2023-09-07T11:05:43;3.80;;;2.37;;
71629;SDS011;59479;51.902;8.212;2023-09-07T11:08:08;5.20;;;2.57;;
71629;SDS011;59479;51.902;8.212;2023-09-07T11:10:34;6.90;;;2.53;;
71629;SDS011;59479;51.902;8.212;2023-09-07T11:13:06;4.90;;;2.60;;
71629;SDS011;59479;51.902;8.212;2023-09-07T11:15:32;5.53;;;2.20;;
71629;SDS011;59479;51.902;8.212;2023-09-07T11:17:58;5.03;;;2.60;;
71629;SDS011;59479;51.902;8.212;2023-09-07T11:20:29;5.77;;;2.13;;
71629;SDS011;59479;51.902;8.212;2023-09-07T11:22:54;4.13;;;2.10;;
71629;SDS011;59479;51.902;8.212;2023-09-07T11:25:20;4.10;;;2.00;;
71629;SDS011;59479;51.902;8.212;2023-09-07T11:27:45;4.70;;;2.23;;
71629;SDS011;59479;51.902;8.212;2023-09-07T11:30:10;4.87;;;2.47;;
71629;SDS011;59479;51.902;8.212;2023-09-07T11:32:36;4.60;;;2.20;;
71629;SDS011;59479;51.902;8.212;2023-09-07T11:35:02;3.90;;;2.40;;
71629;SDS011;59479;51.902;8.212;2023-09-07T11:37:32;4.35;;;2.30;;
71629;SDS011;59479;51.902;8.212;2023-09-07T11:39:57;5.50;;;2.23;;
71629;SDS011;59479;51.902;8.212;2023-09-07T11:42:22;4.43;;;2.33;;
71629;SDS011;59479;51.902;8.212;2023-09-07T11:44:48;5.17;;;2.23;;
71629;SDS011;59479;51.902;8.212;2023-09-07T11:47:13;4.80;;;2.72;;
71629;SDS011;59479;51.902;8.212;2023-09-07T11:49:39;4.10;;;2.10;;
71629;SDS011;59479;51.902;8.212;2023-09-07T11:52:05;4.43;;;2.13;;
71629;SDS011;59479;51.902;8.212;2023-09-07T11:54:30;4.80;;;2.45;;
71629;SDS011;59479;51.902;8.212;2023-09-07T11:56:55;5.13;;;2.37;;
71629;SDS011;59479;51.902;8.212;2023-09-07T11:59:21;4.23;;;2.23;;
71629;SDS011;59479;51.902;8.212;2023-09-07T12:01:46;4.47;;;2.30;;
71629;SDS011;59479;51.902;8.212;2023-09-07T12:04:11;4.00;;;2.23;;
71629;SDS011;59479;51.902;8.212;2023-09-07T12:06:37;4.40;;;2.40;;
71629;SDS011;59479;51.902;8.212;2023-09-07T12:09:03;4.13;;;2.10;;
71629;SDS011;59479;51.902;8.212;2023-09-07T12:11:31;4.07;;;2.00;;
71629;SDS011;59479;51.902;8.212;2023-09-07T12:13:57;3.83;;;1.95;;
71629;SDS011;59479;51.902;8.212;2023-09-07T12:16:23;4.50;;;2.17;;
71629;SDS011;59479;51.902;8.212;2023-09-07T12:18:49;3.70;;;2.13;;
71629;SDS011;59479;51.902;8.212;2023-09-07T12:21:15;3.93;;;2.00;;
71629;SDS011;59479;51.902;8.212;2023-09-07T12:23:40;4.73;;;2.30;;
71629;SDS011;59479;51.902;8.212;2023-09-07T12:26:05;4.50;;;2.50;;
71629;SDS011;59479;51.902;8.212;2023-09-07T12:28:31;4.30;;;2.33;;
71629;SDS011;59479;51.902;8.212;2023-09-07T12:30:59;4.30;;;2.47;;
71629;SDS011;59479;51.902;8.212;2023-09-07T12:33:25;4.53;;;2.07;;
71629;SDS011;59479;51.902;8.212;2023-09-07T12:35:50;4.60;;;2.20;;
71629;SDS011;59479;51.902;8.212;2023-09-07T12:38:16;4.70;;;2.53;;
71629;SDS011;59479;51.902;8.212;2023-09-07T12:40:45;4.18;;;2.30;;
71629;SDS011;59479;51.902;8.212;2023-09-07T12:43:11;4.03;;;2.10;;
71629;SDS011;59479;51.902;8.212;2023-09-07T12:45:36;5.20;;;2.47;;
71629;SDS011;59479;51.902;8.212;2023-09-07T12:48:02;4.50;;;2.17;;
71629;SDS011;59479;51.902;8.212;2023-09-07T12:50:27;4.53;;;2.57;;
71629;SDS011;59479;51.902;8.212;2023-09-07T12:52:53;4.45;;;2.45;;
71629;SDS011;59479;51.902;8.212;2023-09-07T12:55:19;4.30;;;2.25;;
71629;SDS011;59479;51.902;8.212;2023-09-07T12:57:45;3.80;;;1.90;;
71629;SDS011;59479;51.902;8.212;2023-09-07T13:00:10;4.05;;;2.10;;
71629;SDS011;59479;51.902;8.212;2023-09-07T13:02:36;3.60;;;1.90;;
71629;SDS011;59479;51.902;8.212;2023-09-07T13:05:02;5.10;;;2.10;;
71629;SDS011;59479;51.902;8.212;2023-09-07T13:07:33;3.95;;;1.98;;
71629;SDS011;59479;51.902;8.212;2023-09-07T13:10:00;3.88;;;2.08;;
71629;SDS011;59479;51.902;8.212;2023-09-07T13:12:29;4.38;;;2.22;;
71629;SDS011;59479;51.902;8.212;2023-09-07T13:14:55;3.80;;;2.33;;
71629;SDS011;59479;51.902;8.212;2023-09-07T13:17:20;5.47;;;1.90;;
71629;SDS011;59479;51.902;8.212;2023-09-07T13:19:45;4.70;;;2.37;;
71629;SDS011;59479;51.902;8.212;2023-09-07T13:22:13;4.95;;;2.47;;
71629;SDS011;59479;51.902;8.212;2023-09-07T13:24:39;4.97;;;2.53;;
71629;SDS011;59479;51.902;8.212;2023-09-07T13:27:04;4.40;;;1.90;;
71629;SDS011;59479;51.902;8.212;2023-09-07T13:29:30;4.55;;;2.05;;
71629;SDS011;59479;51.902;8.212;2023-09-07T13:31:56;4.65;;;2.20;;
71629;SDS011;59479;51.902;8.212;2023-09-07T13:34:23;4.13;;;2.33;;
71629;SDS011;59479;51.902;8.212;2023-09-07T13:36:48;6.17;;;2.80;;
71629;SDS011;59479;51.902;8.212;2023-09-07T13:39:14;4.88;;;2.75;;
71629;SDS011;59479;51.902;8.212;2023-09-07T13:41:39;3.93;;;2.13;;
71629;SDS011;59479;51.902;8.212;2023-09-07T13:44:04;5.30;;;2.47;;
71629;SDS011;59479;51.902;8.212;2023-09-07T13:46:30;3.67;;;2.10;;
71629;SDS011;59479;51.902;8.212;2023-09-07T13:48:55;4.17;;;2.00;;
71629;SDS011;59479;51.902;8.212;2023-09-07T13:51:21;3.90;;;2.15;;
71629;SDS011;59479;51.902;8.212;2023-09-07T13:53:46;4.80;;;2.10;;
71629;SDS011;59479;51.902;8.212;2023-09-07T13:56:11;4.23;;;2.53;;
71629;SDS011;59479;51.902;8.212;2023-09-07T13:58:37;5.60;;;3.03;;
71629;SDS011;59479;51.902;8.212;2023-09-07T14:01:02;4.43;;;2.57;;
71629;SDS011;59479;51.902;8.212;2023-09-07T14:03:27;4.83;;;2.50;;
71629;SDS011;59479;51.902;8.212;2023-09-07T14:05:53;4.77;;;1.90;;
71629;SDS011;59479;51.902;8.212;2023-09-07T14:08:18;4.88;;;2.67;;
71629;SDS011;59479;51.902;8.212;2023-09-07T14:10:48;3.80;;;2.20;;
71629;SDS011;59479;51.902;8.212;2023-09-07T14:13:14;4.93;;;2.15;;
71629;SDS011;59479;51.902;8.212;2023-09-07T14:15:39;6.43;;;2.35;;
71629;SDS011;59479;51.902;8.212;2023-09-07T14:18:05;3.88;;;2.42;;
71629;SDS011;59479;51.902;8.212;2023-09-07T14:20:30;4.03;;;2.20;;
71629;SDS011;59479;51.902;8.212;2023-09-07T14:22:56;4.00;;;2.17;;
71629;SDS011;59479;51.902;8.212;2023-09-07T14:25:23;3.97;;;1.92;;
71629;SDS011;59479;51.902;8.212;2023-09-07T14:27:49;4.53;;;2.37;;
71629;SDS011;59479;51.902;8.212;2023-09-07T14:30:14;4.70;;;2.30;;
71629;SDS011;59479;51.902;8.212;2023-09-07T14:32:39;4.97;;;2.30;;
71629;SDS011;59479;51.902;8.212;2023-09-07T14:35:05;5.37;;;2.50;;
71629;SDS011;59479;51.902;8.212;2023-09-07T14:37:30;4.33;;;2.40;;
71629;SDS011;59479;51.902;8.212;2023-09-07T14:39:56;4.97;;;2.70;;
71629;SDS011;59479;51.902;8.212;2023-09-07T14:42:23;4.45;;;2.20;;
71629;SDS011;59479;51.902;8.212;2023-09-07T14:44:48;4.15;;;1.80;;